Time;durP1;ratioP1;P1;durP2;ratioP2;P2;SDS_P1;SDS_P2;PMS_P1;PMS_P2;Temp;Humidity;BMP_temperature;BMP_pressure;BME280_temperature;BME280_humidity;BME280_pressure;Samples;Min_cycle;Max_cycle;Signal;HPM_P1;HPM_P2
2022/05/07 00:01:25;;;;;;;;;;;;;;;;;;5058212;28;19916;-43
2022/05/07 00:03:51;;;;;;;;;;;;;;;;;;5058326;28;20386;-43
2022/05/07 00:06:16;;;;;;;;;;;;;;;;;;5058294;28;20302;-43
2022/05/07 00:08:41;;;;;;;;;;;;;;;;;;5058131;28;19908;-43
2022/05/07 00:11:06;;;;;;;;;;;;;;;;;;5057974;28;19909;-43
2022/05/07 00:13:31;;;;;;;;;;;;;;;;;;5058069;28;19909;-44
2022/05/07 00:18:40;;;;;;;;;;;;;;;;;;5057832;28;20424;-44
2022/05/07 00:21:05;;;;;;;;;;;;;;;;;;5057850;28;19940;-43
2022/05/07 00:23:30;;;;;;;;;;;;;;;;;;5057715;28;19909;-44
2022/05/07 00:25:56;;;;;;;;;;;;;;;;;;5057144;28;19913;-43
2022/05/07 00:28:21;;;;;;;;;;;;;;;;;;5057471;28;19916;-43
2022/05/07 00:30:46;;;;;;;;;;;;;;;;;;5057221;28;20291;-43
2022/05/07 00:33:11;;;;;;;;;;;;;;;;;;5057570;28;19917;-44
2022/05/07 00:35:36;;;;;;;;;;;;;;;;;;5056180;28;19912;-43
2022/05/07 00:38:01;;;;;;;;;;;;;;;;;;5057485;28;19917;-44
2022/05/07 00:40:26;;;;;;;;;;;;;;;;;;5057438;28;19916;-43
2022/05/07 00:42:51;;;;;;;;;;;;;;;;;;5057279;28;19909;-43
2022/05/07 00:45:16;;;;;;;;;;;;;;;;;;5057221;28;19909;-45
2022/05/07 00:47:42;;;;;;;;;;;;;;;;;;5057324;28;20442;-43
2022/05/07 00:52:51;;;;;;;;;;;;;;;;;;5057427;28;19916;-43
2022/05/07 00:55:16;;;;;;;;;;;;;;;;;;5056922;28;19913;-44
2022/05/07 00:57:41;;;;;;;;;;;;;;;;;;5057116;28;20010;-43
2022/05/07 01:00:06;;;;;;;;;;;;;;;;;;5057276;28;19947;-43
2022/05/07 01:02:31;;;;;;;;;;;;;;;;;;5056605;28;19951;-43
2022/05/07 01:04:56;;;;;;;;;;;;;;;;;;5057227;28;19999;-42
2022/05/07 01:07:21;;;;;;;;;;;;;;;;;;5056995;28;20423;-43
2022/05/07 01:09:46;;;;;;;;;;;;;;;;;;5057115;28;20332;-43
2022/05/07 01:12:11;;;;;;;;;;;;;;;;;;5057105;28;20000;-43
2022/05/07 01:14:37;;;;;;;;;;;;;;;;;;5056898;28;19981;-44
2022/05/07 01:17:02;;;;;;;;;;;;;;;;;;5056921;28;20011;-43
2022/05/07 01:19:27;;;;;;;;;;;;;;;;;;5056932;28;20015;-43
2022/05/07 01:21:52;;;;;;;;;;;;;;;;;;5056865;28;20019;-43
2022/05/07 01:24:18;;;;;;;;;;;;;;;;;;5056616;28;19909;-44
2022/05/07 01:26:43;;;;;;;;;;;;;;;;;;5056619;28;19920;-43
2022/05/07 01:29:08;;;;;;;;;;;;;;;;;;5059900;22;19953;-43
2022/05/07 01:31:34;;;;;;;;;;;;;;;;;;5036722;28;19917;-44
2022/05/07 01:33:59;;;;;;;;;;;;;;;;;;5036554;28;19960;-43
2022/05/07 01:36:24;;;;;;;;;;;;;;;;;;5036557;28;19964;-43
2022/05/07 01:38:49;;;;;;;;;;;;;;;;;;5036521;28;19909;-43
2022/05/07 01:41:14;;;;;;;;;;;;;;;;;;5036605;28;20391;-43
2022/05/07 01:43:40;;;;;;;;;;;;;;;;;;5036447;28;19912;-43
2022/05/07 01:48:09;;;;;;;;;;;;;;;;;;5036386;28;19928;-43
2022/05/07 01:48:50;;;;;;;;;;;;;;;;;;5036421;28;19996;-43
2022/05/07 01:51:15;;;;;;;;;;;;;;;;;;5036537;28;20438;-43
2022/05/07 01:53:40;;;;;;;;;;;;;;;;;;5036278;28;20374;-43
2022/05/07 01:56:05;;;;;;;;;;;;;;;;;;5035488;28;19983;-44
2022/05/07 01:58:30;;;;;;;;;;;;;;;;;;5036185;28;19916;-42
2022/05/07 02:00:56;;;;;;;;;;;;;;;;;;5036150;28;19913;-43
2022/05/07 02:03:21;;;;;;;;;;;;;;;;;;5036020;28;19916;-43
2022/05/07 02:05:46;;;;;;;;;;;;;;;;;;5035883;28;19909;-43
2022/05/07 02:08:12;;;;;;;;;;;;;;;;;;5036003;28;19909;-43
2022/05/07 02:10:37;;;;;;;;;;;;;;;;;;5036007;28;19916;-43
2022/05/07 02:13:02;;;;;;;;;;;;;;;;;;5035385;28;19975;-44
2022/05/07 02:15:28;;;;;;;;;;;;;;;;;;5035840;28;20343;-44
2022/05/07 02:17:53;;;;;;;;;;;;;;;;;;5038296;28;20348;-43
2022/05/07 02:20:18;;;;;;;;;;;;;;;;;;5055590;28;19915;-45
2022/05/07 02:22:44;;;;;;;;;;;;;;;;;;5055843;28;20332;-43
2022/05/07 02:25:09;;;;;;;;;;;;;;;;;;5055213;28;19913;-43
2022/05/07 02:27:34;;;;;;;;;;;;;;;;;;5055543;28;20386;-43
2022/05/07 02:30:00;;;;;;;;;;;;;;;;;;5053889;28;19999;-43
2022/05/07 02:32:25;;;;;;;;;;;;;;;;;;5055549;28;19919;-43
2022/05/07 02:34:50;;;;;;;;;;;;;;;;;;5055545;28;19983;-43
2022/05/07 02:37:15;;;;;;;;;;;;;;;;;;5054541;28;19956;-43
2022/05/07 02:39:40;;;;;;;;;;;;;;;;;;5054666;28;19967;-43
2022/05/07 02:44:49;;;;;;;;;;;;;;;;;;5055455;28;19959;-44
2022/05/07 02:47:14;;;;;;;;;;;;;;;;;;5055272;28;20324;-42
2022/05/07 02:49:39;;;;;;;;;;;;;;;;;;5055213;28;19920;-43
2022/05/07 02:52:04;;;;;;;;;;;;;;;;;;5055278;28;20868;-43
2022/05/07 02:54:29;;;;;;;;;;;;;;;;;;5054692;28;19905;-43
2022/05/07 02:56:54;;;;;;;;;;;;;;;;;;5055023;28;19916;-42
2022/05/07 02:59:20;;;;;;;;;;;;;;;;;;5055131;28;19909;-43
2022/05/07 03:01:45;;;;;;;;;;;;;;;;;;5055309;28;19912;-43
2022/05/07 03:04:10;;;;;;;;;;;;;;;;;;5054981;28;19908;-43
2022/05/07 03:06:35;;;;;;;;;;;;;;;;;;5054881;28;19908;-44
2022/05/07 03:09:00;;;;;;;;;;;;;;;;;;5054844;28;19905;-43
2022/05/07 03:11:25;;;;;;;;;;;;;;;;;;5054849;28;19909;-43
2022/05/07 03:13:50;;;;;;;;;;;;;;;;;;5055002;28;19916;-43
2022/05/07 03:16:15;;;;;;;;;;;;;;;;;;5054929;28;19999;-43
2022/05/07 03:18:40;;;;;;;;;;;;;;;;;;5054872;28;19943;-43
2022/05/07 03:21:05;;;;;;;;;;;;;;;;;;5055105;28;19979;-43
2022/05/07 03:23:31;;;;;;;;;;;;;;;;;;5054782;28;19956;-43
2022/05/07 03:25:56;;;;;;;;;;;;;;;;;;5054199;28;19967;-42
2022/05/07 03:28:21;;;;;;;;;;;;;;;;;;5054798;28;19975;-43
2022/05/07 03:30:46;;;;;;;;;;;;;;;;;;5053319;28;19927;-43
2022/05/07 03:33:12;;;;;;;;;;;;;;;;;;5054703;28;19915;-43
2022/05/07 03:35:37;;;;;;;;;;;;;;;;;;5054499;28;19915;-43
2022/05/07 03:38:03;;;;;;;;;;;;;;;;;;5054580;28;20003;-43
2022/05/07 03:40:28;;;;;;;;;;;;;;;;;;5054613;28;20352;-42
2022/05/07 03:42:56;;;;;;;;;;;;;;;;;;5054654;28;19908;-43
2022/05/07 03:45:21;;;;;;;;;;;;;;;;;;5054779;28;19909;-44
2022/05/07 03:47:46;;;;;;;;;;;;;;;;;;5054432;28;20394;-43
2022/05/07 03:50:12;;;;;;;;;;;;;;;;;;5054517;28;20280;-43
2022/05/07 03:55:20;;;;;;;;;;;;;;;;;;5054349;28;19974;-43
2022/05/07 03:57:45;;;;;;;;;;;;;;;;;;5054149;28;19920;-43
2022/05/07 04:00:11;;;;;;;;;;;;;;;;;;5054498;28;19908;-44
2022/05/07 04:02:36;;;;;;;;;;;;;;;;;;5054680;28;19909;-43
2022/05/07 04:05:01;;;;;;;;;;;;;;;;;;5054438;28;19956;-44
2022/05/07 04:07:26;;;;;;;;;;;;;;;;;;5054417;28;19931;-44
2022/05/07 04:09:54;;;;;;;;;;;;;;;;;;5054650;28;20383;-43
2022/05/07 04:12:19;;;;;;;;;;;;;;;;;;5054480;28;20352;-43
2022/05/07 04:14:44;;;;;;;;;;;;;;;;;;5054347;28;19913;-43
2022/05/07 04:17:09;;;;;;;;;;;;;;;;;;5054522;28;19952;-43
2022/05/07 04:19:35;;;;;;;;;;;;;;;;;;5053953;28;20003;-43
2022/05/07 04:22:01;;;;;;;;;;;;;;;;;;5054313;28;20000;-43
2022/05/07 04:24:26;;;;;;;;;;;;;;;;;;5053635;28;20055;-42
2022/05/07 04:26:51;;;;;;;;;;;;;;;;;;5054269;28;19962;-43
2022/05/07 04:29:17;;;;;;;;;;;;;;;;;;5053956;28;19968;-43
2022/05/07 04:31:43;;;;;;;;;;;;;;;;;;5054659;28;19952;-43
2022/05/07 04:34:09;;;;;;;;;;;;;;;;;;5054289;28;20372;-43
2022/05/07 04:36:34;;;;;;;;;;;;;;;;;;5055321;28;19920;-42
2022/05/07 04:38:59;;;;;;;;;;;;;;;;;;5057689;28;20422;-43
2022/05/07 04:41:24;;;;;;;;;;;;;;;;;;5057512;28;20024;-44
2022/05/07 04:43:50;;;;;;;;;;;;;;;;;;5057680;28;19909;-43
2022/05/07 04:46:15;;;;;;;;;;;;;;;;;;5057573;28;19935;-43
2022/05/07 04:48:41;;;;;;;;;;;;;;;;;;5057541;28;19913;-43
2022/05/07 04:51:06;;;;;;;;;;;;;;;;;;5057618;28;19952;-43
2022/05/07 04:53:32;;;;;;;;;;;;;;;;;;5057543;28;19966;-42
2022/05/07 04:55:57;;;;;;;;;;;;;;;;;;5057204;28;19923;-44
2022/05/07 04:58:22;;;;;;;;;;;;;;;;;;5057274;28;19912;-43
2022/05/07 05:00:47;;;;;;;;;;;;;;;;;;5057245;28;19912;-43
2022/05/07 05:03:13;;;;;;;;;;;;;;;;;;5056024;28;19924;-43
2022/05/07 05:05:39;;;;;;;;;;;;;;;;;;5057144;28;19917;-43
2022/05/07 05:08:04;;;;;;;;;;;;;;;;;;5057386;28;19974;-44
2022/05/07 05:10:29;;;;;;;;;;;;;;;;;;5057199;28;19912;-43
2022/05/07 05:12:54;;;;;;;;;;;;;;;;;;5057076;28;19912;-43
2022/05/07 05:15:20;;;;;;;;;;;;;;;;;;5056958;28;19909;-43
2022/05/07 05:17:46;;;;;;;;;;;;;;;;;;5057032;28;19920;-43
2022/05/07 05:20:11;;;;;;;;;;;;;;;;;;5057098;28;19909;-43
2022/05/07 05:22:36;;;;;;;;;;;;;;;;;;5056758;28;19979;-43
2022/05/07 05:25:01;;;;;;;;;;;;;;;;;;5056740;28;20356;-43
2022/05/07 05:27:26;;;;;;;;;;;;;;;;;;5057083;28;19952;-42
2022/05/07 05:29:52;;;;;;;;;;;;;;;;;;5056791;28;19949;-43
2022/05/07 05:32:20;;;;;;;;;;;;;;;;;;5057022;28;19956;-43
2022/05/07 05:34:45;;;;;;;;;;;;;;;;;;5056787;28;20387;-43
2022/05/07 05:37:10;;;;;;;;;;;;;;;;;;5056504;28;19940;-43
2022/05/07 05:39:35;;;;;;;;;;;;;;;;;;5056707;28;19909;-43
2022/05/07 05:42:00;;;;;;;;;;;;;;;;;;5056540;28;19916;-44
2022/05/07 05:44:25;;;;;;;;;;;;;;;;;;5056529;28;19915;-43
2022/05/07 05:46:50;;;;;;;;;;;;;;;;;;5056673;28;19915;-43
2022/05/07 05:49:16;;;;;;;;;;;;;;;;;;5056465;28;20360;-43
2022/05/07 05:51:41;;;;;;;;;;;;;;;;;;5056419;28;20280;-42
2022/05/07 05:54:06;;;;;;;;;;;;;;;;;;5055900;28;19916;-44
2022/05/07 05:56:31;;;;;;;;;;;;;;;;;;5056067;28;19913;-43
2022/05/07 05:58:56;;;;;;;;;;;;;;;;;;5056213;28;19916;-43
2022/05/07 06:01:21;;;;;;;;;;;;;;;;;;5056061;28;19916;-44
2022/05/07 06:03:46;;;;;;;;;;;;;;;;;;5056139;28;20395;-42
2022/05/07 06:06:11;;;;;;;;;;;;;;;;;;5056252;28;20276;-43
2022/05/07 06:08:36;;;;;;;;;;;;;;;;;;5056028;28;19909;-43
2022/05/07 06:11:02;;;;;;;;;;;;;;;;;;5056066;28;20360;-43
2022/05/07 06:13:27;;;;;;;;;;;;;;;;;;5056021;28;19995;-44
2022/05/07 06:15:52;;;;;;;;;;;;;;;;;;5055871;28;19923;-43
2022/05/07 06:18:18;;;;;;;;;;;;;;;;;;5055830;28;19915;-43
2022/05/07 06:20:43;;;;;;;;;;;;;;;;;;5055371;28;19917;-43
2022/05/07 06:23:08;;;;;;;;;;;;;;;;;;5055795;28;19912;-43
2022/05/07 06:28:17;;;;;;;;;;;;;;;;;;5055499;28;19916;-44
2022/05/07 06:30:42;;;;;;;;;;;;;;;;;;5055437;28;19925;-43
2022/05/07 06:33:07;;;;;;;;;;;;;;;;;;5055592;28;19971;-44
2022/05/07 06:35:32;;;;;;;;;;;;;;;;;;5055266;28;19935;-43
2022/05/07 06:37:57;;;;;;;;;;;;;;;;;;5055411;28;20050;-45
2022/05/07 06:40:23;;;;;;;;;;;;;;;;;;5055285;28;20011;-43
2022/05/07 06:42:48;;;;;;;;;;;;;;;;;;5055118;28;20011;-43
2022/05/07 06:45:13;;;;;;;;;;;;;;;;;;5055218;28;20003;-43
2022/05/07 06:47:38;;;;;;;;;;;;;;;;;;5055107;28;19909;-43
2022/05/07 06:50:03;;;;;;;;;;;;;;;;;;5055036;28;19966;-44
2022/05/07 06:52:29;;;;;;;;;;;;;;;;;;5055112;28;19909;-43
2022/05/07 06:54:54;;;;;;;;;;;;;;;;;;5055145;28;19912;-44
2022/05/07 06:57:19;;;;;;;;;;;;;;;;;;5054982;28;19917;-43
2022/05/07 06:59:44;;;;;;;;;;;;;;;;;;5054730;28;20378;-45
2022/05/07 07:02:09;;;;;;;;;;;;;;;;;;5054880;28;20267;-44
2022/05/07 07:04:34;;;;;;;;;;;;;;;;;;5054866;28;19966;-43
2022/05/07 07:07:00;;;;;;;;;;;;;;;;;;5054909;28;19909;-47
2022/05/07 07:09:25;;;;;;;;;;;;;;;;;;5055173;28;19962;-43
2022/05/07 07:11:50;;;;;;;;;;;;;;;;;;5054958;28;19919;-43
2022/05/07 07:14:15;;;;;;;;;;;;;;;;;;5054699;28;19915;-44
2022/05/07 07:16:40;;;;;;;;;;;;;;;;;;5054804;28;20027;-43
2022/05/07 07:19:06;;;;;;;;;;;;;;;;;;5054595;28;20422;-43
2022/05/07 07:21:31;;;;;;;;;;;;;;;;;;5054988;28;20003;-43
2022/05/07 07:23:56;;;;;;;;;;;;;;;;;;5054570;28;20284;-44
2022/05/07 07:26:21;;;;;;;;;;;;;;;;;;5053780;28;19916;-43
2022/05/07 07:28:47;;;;;;;;;;;;;;;;;;5053982;28;20383;-43
2022/05/07 07:31:12;;;;;;;;;;;;;;;;;;5054486;28;19913;-44
2022/05/07 07:33:38;;;;;;;;;;;;;;;;;;5054502;28;19916;-45
2022/05/07 07:36:04;;;;;;;;;;;;;;;;;;5054208;28;19993;-44
2022/05/07 07:38:29;;;;;;;;;;;;;;;;;;5054358;28;20419;-46
2022/05/07 07:40:54;;;;;;;;;;;;;;;;;;5054739;28;20415;-45
2022/05/07 07:43:20;;;;;;;;;;;;;;;;;;5054551;28;20415;-44
2022/05/07 07:48:29;;;;;;;;;;;;;;;;;;5054524;28;19932;-43
2022/05/07 07:50:54;;;;;;;;;;;;;;;;;;5054541;28;19912;-45
2022/05/07 07:53:22;;;;;;;;;;;;;;;;;;5054135;28;20352;-45
2022/05/07 07:55:47;;;;;;;;;;;;;;;;;;5052742;28;19919;-43
2022/05/07 07:58:12;;;;;;;;;;;;;;;;;;5054236;28;19916;-44
2022/05/07 08:00:38;;;;;;;;;;;;;;;;;;5054053;28;19963;-45
2022/05/07 08:03:03;;;;;;;;;;;;;;;;;;5054382;28;19917;-44
2022/05/07 08:05:28;;;;;;;;;;;;;;;;;;5054163;28;19908;-44
2022/05/07 08:13:20;;;;;;;;;;;;;;;;;;5058011;28;19923;-44
2022/05/07 08:15:46;;;;;;;;;;;;;;;;;;5057753;28;20007;-44
2022/05/07 08:18:11;;;;;;;;;;;;;;;;;;5057792;28;20398;-46
2022/05/07 08:20:36;;;;;;;;;;;;;;;;;;5057576;28;19963;-44
2022/05/07 08:23:01;;;;;;;;;;;;;;;;;;5057629;28;19915;-45
2022/05/07 08:25:26;;;;;;;;;;;;;;;;;;5057438;28;19919;-43
2022/05/07 08:27:51;;;;;;;;;;;;;;;;;;5057651;28;19955;-43
2022/05/07 08:30:17;;;;;;;;;;;;;;;;;;5057530;28;19974;-45
2022/05/07 08:32:42;;;;;;;;;;;;;;;;;;5057774;28;19913;-44
2022/05/07 08:35:07;;;;;;;;;;;;;;;;;;5057533;28;20012;-45
2022/05/07 08:37:32;;;;;;;;;;;;;;;;;;5057337;28;19913;-45
2022/05/07 08:40:01;;;;;;;;;;;;;;;;;;5057225;28;19912;-45
2022/05/07 08:42:27;;;;;;;;;;;;;;;;;;5057466;28;19909;-45
2022/05/07 08:44:53;;;;;;;;;;;;;;;;;;5057113;28;19913;-45
2022/05/07 08:47:18;;;;;;;;;;;;;;;;;;5057388;28;19915;-45
2022/05/07 08:49:43;;;;;;;;;;;;;;;;;;5057288;28;19919;-45
2022/05/07 08:52:09;;;;;;;;;;;;;;;;;;5057164;28;20356;-45
2022/05/07 08:54:35;;;;;;;;;;;;;;;;;;5057281;28;19916;-45
2022/05/07 08:57:00;;;;;;;;;;;;;;;;;;5057087;28;19913;-45
2022/05/07 08:59:25;;;;;;;;;;;;;;;;;;5056960;28;19979;-46
2022/05/07 09:01:50;;;;;;;;;;;;;;;;;;5056909;28;19931;-44
2022/05/07 09:04:15;;;;;;;;;;;;;;;;;;5056929;28;19917;-44
2022/05/07 09:06:40;;;;;;;;;;;;;;;;;;5056963;28;19908;-45
2022/05/07 09:09:06;;;;;;;;;;;;;;;;;;5056819;28;19955;-45
2022/05/07 09:11:31;;;;;;;;;;;;;;;;;;5056880;28;19909;-45
2022/05/07 09:13:56;;;;;;;;;;;;;;;;;;5055476;28;19908;-44
2022/05/07 09:16:22;;;;;;;;;;;;;;;;;;5056512;28;19917;-45
2022/05/07 09:18:48;;;;;;;;;;;;;;;;;;5056852;28;20356;-45
2022/05/07 09:21:16;;;;;;;;;;;;;;;;;;5056809;28;19916;-45
2022/05/07 09:23:41;;;;;;;;;;;;;;;;;;5056062;28;20390;-45
2022/05/07 09:26:06;;;;;;;;;;;;;;;;;;5056692;28;19904;-45
2022/05/07 09:28:31;;;;;;;;;;;;;;;;;;5056556;28;19909;-46
2022/05/07 09:30:57;;;;;;;;;;;;;;;;;;5056162;28;19927;-45
2022/05/07 09:33:22;;;;;;;;;;;;;;;;;;5056464;28;19935;-44
2022/05/07 09:35:47;;;;;;;;;;;;;;;;;;5056270;28;19913;-45
2022/05/07 09:38:12;;;;;;;;;;;;;;;;;;5056386;28;19913;-45
2022/05/07 09:40:38;;;;;;;;;;;;;;;;;;5056545;28;19915;-45
2022/05/07 09:43:03;;;;;;;;;;;;;;;;;;5056235;28;19932;-45
2022/05/07 09:45:28;;;;;;;;;;;;;;;;;;5055850;28;19913;-45
2022/05/07 09:47:53;;;;;;;;;;;;;;;;;;5055954;28;20370;-45
2022/05/07 09:50:22;;;;;;;;;;;;;;;;;;5056042;28;20340;-45
2022/05/07 09:58:15;;;;;;;;;;;;;;;;;;5056056;28;19966;-45
2022/05/07 10:00:40;;;;;;;;;;;;;;;;;;5055883;28;19909;-44
2022/05/07 10:03:05;;;;;;;;;;;;;;;;;;5055675;28;19909;-45
2022/05/07 10:05:30;;;;;;;;;;;;;;;;;;5055965;28;20356;-45
2022/05/07 10:07:56;;;;;;;;;;;;;;;;;;5055664;28;20386;-45
2022/05/07 10:10:22;;;;;;;;;;;;;;;;;;5055604;28;19916;-45
2022/05/07 10:12:47;;;;;;;;;;;;;;;;;;5055804;28;19909;-45
2022/05/07 10:15:12;;;;;;;;;;;;;;;;;;5055160;28;19913;-44
2022/05/07 10:17:37;;;;;;;;;;;;;;;;;;5055464;28;19917;-45
2022/05/07 10:20:02;;;;;;;;;;;;;;;;;;5055547;28;20291;-44
2022/05/07 10:22:27;;;;;;;;;;;;;;;;;;5055461;28;19931;-43
2022/05/07 10:24:53;;;;;;;;;;;;;;;;;;5054665;28;19916;-43
2022/05/07 10:27:19;;;;;;;;;;;;;;;;;;5055170;28;19961;-43
2022/05/07 10:29:44;;;;;;;;;;;;;;;;;;5055096;28;19932;-46
2022/05/07 10:32:10;;;;;;;;;;;;;;;;;;5055166;28;20348;-47
2022/05/07 10:34:36;;;;;;;;;;;;;;;;;;5054416;28;19908;-43
2022/05/07 10:37:02;;;;;;;;;;;;;;;;;;5055097;28;20379;-46
2022/05/07 10:39:27;;;;;;;;;;;;;;;;;;5055061;28;19909;-43
2022/05/07 10:41:52;;;;;;;;;;;;;;;;;;5055068;28;19936;-43
2022/05/07 10:44:17;;;;;;;;;;;;;;;;;;5055548;28;19999;-43
2022/05/07 10:46:43;;;;;;;;;;;;;;;;;;5055234;28;19959;-43
2022/05/07 10:49:09;;;;;;;;;;;;;;;;;;5055218;28;19931;-45
2022/05/07 10:51:35;;;;;;;;;;;;;;;;;;5053800;28;20372;-43
2022/05/07 10:54:03;;;;;;;;;;;;;;;;;;5053651;28;19916;-43
2022/05/07 10:56:28;;;;;;;;;;;;;;;;;;5054575;28;19923;-43
2022/05/07 10:58:53;;;;;;;;;;;;;;;;;;5054771;28;19909;-44
2022/05/07 11:01:18;;;;;;;;;;;;;;;;;;5054922;28;19915;-43
2022/05/07 11:03:44;;;;;;;;;;;;;;;;;;5054723;28;19917;-43
2022/05/07 11:06:09;;;;;;;;;;;;;;;;;;5054904;28;19932;-44
2022/05/07 11:08:36;;;;;;;;;;;;;;;;;;5054848;28;19909;-44
2022/05/07 11:11:01;;;;;;;;;;;;;;;;;;5054749;28;19992;-45
2022/05/07 11:13:26;;;;;;;;;;;;;;;;;;5054630;28;19959;-44
2022/05/07 11:15:51;;;;;;;;;;;;;;;;;;5054603;28;20011;-43
2022/05/07 11:18:16;;;;;;;;;;;;;;;;;;5054402;28;19999;-44
2022/05/07 11:20:42;;;;;;;;;;;;;;;;;;5054518;28;19908;-44
2022/05/07 11:23:07;;;;;;;;;;;;;;;;;;5053038;28;20372;-44
2022/05/07 11:25:32;;;;;;;;;;;;;;;;;;5052882;28;19963;-45
2022/05/07 11:27:58;;;;;;;;;;;;;;;;;;5054347;28;19988;-43
2022/05/07 11:30:23;;;;;;;;;;;;;;;;;;5054504;28;19995;-44
2022/05/07 11:32:48;;;;;;;;;;;;;;;;;;5054557;28;19941;-43
2022/05/07 11:35:13;;;;;;;;;;;;;;;;;;5053172;28;19913;-44
2022/05/07 11:37:39;;;;;;;;;;;;;;;;;;5054189;28;19935;-43
2022/05/07 11:40:04;;;;;;;;;;;;;;;;;;5054348;28;19915;-43
2022/05/07 11:42:29;;;;;;;;;;;;;;;;;;5052255;28;19919;-43
2022/05/07 11:47:38;;;;;;;;;;;;;;;;;;5038585;28;19932;-45
2022/05/07 11:50:06;;;;;;;;;;;;;;;;;;5038332;28;19917;-44
2022/05/07 11:52:31;;;;;;;;;;;;;;;;;;5038484;28;19916;-44
2022/05/07 11:54:56;;;;;;;;;;;;;;;;;;5045973;28;19913;-45
2022/05/07 11:57:21;;;;;;;;;;;;;;;;;;5057940;28;19921;-45
2022/05/07 11:59:46;;;;;;;;;;;;;;;;;;5058195;28;20003;-45
2022/05/07 12:02:11;;;;;;;;;;;;;;;;;;5058258;28;20004;-44
2022/05/07 12:04:37;;;;;;;;;;;;;;;;;;5058101;28;19909;-44
2022/05/07 12:07:02;;;;;;;;;;;;;;;;;;5058213;28;20051;-45
2022/05/07 12:09:27;;;;;;;;;;;;;;;;;;5057990;28;19909;-45
2022/05/07 12:11:52;;;;;;;;;;;;;;;;;;5058236;28;19905;-44
2022/05/07 12:14:17;;;;;;;;;;;;;;;;;;5057939;28;19966;-45
2022/05/07 12:19:26;;;;;;;;;;;;;;;;;;5057870;28;19915;-45
2022/05/07 12:30:02;;;;;;;;;;;;;;;;;;5037525;28;19983;-45
2022/05/07 12:32:28;;;;;;;;;;;;;;;;;;5053076;28;19909;-44
2022/05/07 12:34:53;;;;;;;;;;;;;;;;;;5037687;28;19967;-45
2022/05/07 12:37:19;;;;;;;;;;;;;;;;;;5037399;28;19921;-45
2022/05/07 12:39:45;;;;;;;;;;;;;;;;;;5037401;28;19913;-45
2022/05/07 12:42:10;;;;;;;;;;;;;;;;;;5037372;28;19959;-45
2022/05/07 12:44:35;;;;;;;;;;;;;;;;;;5037397;28;19945;-45
2022/05/07 12:47:00;;;;;;;;;;;;;;;;;;5037283;28;19915;-44
2022/05/07 12:49:26;;;;;;;;;;;;;;;;;;5037374;28;19914;-44
2022/05/07 12:51:52;;;;;;;;;;;;;;;;;;5053480;28;20330;-45
2022/05/07 12:54:17;;;;;;;;;;;;;;;;;;5057158;28;19913;-45
2022/05/07 12:56:43;;;;;;;;;;;;;;;;;;5056321;28;19917;-44
2022/05/07 12:59:08;;;;;;;;;;;;;;;;;;5057146;28;19916;-44
2022/05/07 13:01:34;;;;;;;;;;;;;;;;;;5055853;28;20348;-44
2022/05/07 13:03:59;;;;;;;;;;;;;;;;;;5056975;28;19909;-44
2022/05/07 13:06:24;;;;;;;;;;;;;;;;;;5056823;28;19912;-44
2022/05/07 13:08:49;;;;;;;;;;;;;;;;;;5056932;28;19909;-44
2022/05/07 13:11:14;;;;;;;;;;;;;;;;;;5057375;28;19909;-45
2022/05/07 13:13:39;;;;;;;;;;;;;;;;;;5056808;28;19915;-44
2022/05/07 13:16:04;;;;;;;;;;;;;;;;;;5056622;28;19908;-44
2022/05/07 13:18:29;;;;;;;;;;;;;;;;;;5056753;28;19908;-47
2022/05/07 13:20:55;;;;;;;;;;;;;;;;;;5056403;28;19958;-45
2022/05/07 13:23:20;;;;;;;;;;;;;;;;;;5056636;28;19967;-48
2022/05/07 13:25:45;;;;;;;;;;;;;;;;;;5056697;28;20344;-44
2022/05/07 13:28:10;;;;;;;;;;;;;;;;;;5056477;28;19944;-45
2022/05/07 13:30:36;;;;;;;;;;;;;;;;;;5049340;22;20373;-45
2022/05/07 13:33:01;;;;;;;;;;;;;;;;;;5036344;28;19979;-45
2022/05/07 13:35:27;;;;;;;;;;;;;;;;;;5036482;28;20415;-45
2022/05/07 13:37:53;;;;;;;;;;;;;;;;;;5036303;28;19913;-45
2022/05/07 13:40:18;;;;;;;;;;;;;;;;;;5036332;28;19963;-45
2022/05/07 13:42:43;;;;;;;;;;;;;;;;;;5036349;28;20455;-44
2022/05/07 13:45:11;;;;;;;;;;;;;;;;;;5036317;28;20283;-45
2022/05/07 13:47:37;;;;;;;;;;;;;;;;;;5036372;28;20276;-44
2022/05/07 13:50:04;;;;;;;;;;;;;;;;;;5036079;28;19913;-44
2022/05/07 13:52:29;;;;;;;;;;;;;;;;;;5036233;28;20407;-45
2022/05/07 13:54:55;;;;;;;;;;;;;;;;;;5036220;28;19909;-44
2022/05/07 13:57:20;;;;;;;;;;;;;;;;;;5036010;28;20280;-44
2022/05/07 13:59:46;;;;;;;;;;;;;;;;;;5035918;28;19917;-44
2022/05/07 14:02:11;;;;;;;;;;;;;;;;;;5035890;28;20360;-46
2022/05/07 14:04:36;;;;;;;;;;;;;;;;;;5035933;28;19917;-44
2022/05/07 14:07:01;;;;;;;;;;;;;;;;;;5036145;28;19909;-44
2022/05/07 14:09:26;;;;;;;;;;;;;;;;;;5034760;28;19913;-45
2022/05/07 14:11:51;;;;;;;;;;;;;;;;;;5035839;28;19910;-45
2022/05/07 14:14:17;;;;;;;;;;;;;;;;;;5035841;28;19963;-44
2022/05/07 14:16:42;;;;;;;;;;;;;;;;;;5035896;28;19917;-44
2022/05/07 14:19:07;;;;;;;;;;;;;;;;;;5035857;28;19913;-44
2022/05/07 14:21:34;;;;;;;;;;;;;;;;;;5035735;28;19914;-44
2022/05/07 14:24:00;;;;;;;;;;;;;;;;;;5037068;28;20336;-45
2022/05/07 14:26:25;;;;;;;;;;;;;;;;;;5055288;28;19935;-45
2022/05/07 14:28:50;;;;;;;;;;;;;;;;;;5061086;28;19912;-44
2022/05/07 14:31:16;;;;;;;;;;;;;;;;;;5075333;28;19928;-46
2022/05/07 14:33:41;;;;;;;;;;;;;;;;;;5075327;28;19916;-43
2022/05/07 14:36:06;;;;;;;;;;;;;;;;;;5075351;28;20295;-43
2022/05/07 14:38:31;;;;;;;;;;;;;;;;;;5075269;28;20363;-44
2022/05/07 14:40:56;;;;;;;;;;;;;;;;;;5075205;28;19909;-43
2022/05/07 14:43:23;;;;;;;;;;;;;;;;;;5075253;28;20372;-43
2022/05/07 14:45:48;;;;;;;;;;;;;;;;;;5075157;28;19909;-44
2022/05/07 14:48:13;;;;;;;;;;;;;;;;;;5075175;28;20431;-44
2022/05/07 14:50:38;;;;;;;;;;;;;;;;;;5066849;28;19913;-44
2022/05/07 14:53:03;;;;;;;;;;;;;;;;;;5055055;28;19916;-44
2022/05/07 14:55:28;;;;;;;;;;;;;;;;;;5055081;28;19944;-43
2022/05/07 14:57:53;;;;;;;;;;;;;;;;;;5054581;28;19963;-44
2022/05/07 15:00:19;;;;;;;;;;;;;;;;;;5054925;28;19959;-42
2022/05/07 15:02:48;;;;;;;;;;;;;;;;;;5054716;28;20000;-43
2022/05/07 15:05:14;;;;;;;;;;;;;;;;;;5053695;28;19998;-43
2022/05/07 15:07:39;;;;;;;;;;;;;;;;;;5054708;28;19909;-43
2022/05/07 15:12:48;;;;;;;;;;;;;;;;;;5054597;28;20402;-43
2022/05/07 15:15:13;;;;;;;;;;;;;;;;;;5054711;28;19908;-42
2022/05/07 15:17:39;;;;;;;;;;;;;;;;;;5054472;28;19913;-44
2022/05/07 15:20:04;;;;;;;;;;;;;;;;;;5053849;28;20334;-44
2022/05/07 15:22:29;;;;;;;;;;;;;;;;;;5054303;28;19927;-45
2022/05/07 15:24:55;;;;;;;;;;;;;;;;;;5054523;28;20352;-43
2022/05/07 15:27:21;;;;;;;;;;;;;;;;;;5054618;28;20388;-44
2022/05/07 15:29:46;;;;;;;;;;;;;;;;;;5054218;28;19947;-45
2022/05/07 15:37:39;;;;;;;;;;;;;;;;;;5054631;28;19967;-44
2022/05/07 15:40:05;;;;;;;;;;;;;;;;;;5054824;28;19917;-44
2022/05/07 15:42:30;;;;;;;;;;;;;;;;;;5054937;28;19952;-45
2022/05/07 15:44:56;;;;;;;;;;;;;;;;;;5054604;28;19908;-45
2022/05/07 15:47:21;;;;;;;;;;;;;;;;;;5055812;28;19909;-47
2022/05/07 15:49:48;;;;;;;;;;;;;;;;;;5053313;28;20406;-44
2022/05/07 15:52:14;;;;;;;;;;;;;;;;;;5054785;28;20011;-44
2022/05/07 15:54:39;;;;;;;;;;;;;;;;;;5054835;28;20252;-45
2022/05/07 15:57:08;;;;;;;;;;;;;;;;;;5054598;28;19916;-44
2022/05/07 15:59:33;;;;;;;;;;;;;;;;;;5056444;28;19952;-46
2022/05/07 16:01:58;;;;;;;;;;;;;;;;;;5054796;28;19916;-43
2022/05/07 16:04:23;;;;;;;;;;;;;;;;;;5054945;28;19968;-44
2022/05/07 16:06:48;;;;;;;;;;;;;;;;;;5055668;28;20011;-44
2022/05/07 16:09:14;;;;;;;;;;;;;;;;;;5055284;28;19909;-44
2022/05/07 16:11:42;;;;;;;;;;;;;;;;;;5054838;28;19909;-45
2022/05/07 16:14:08;;;;;;;;;;;;;;;;;;5054225;28;19946;-45
2022/05/07 16:16:33;;;;;;;;;;;;;;;;;;5054108;28;19956;-44
2022/05/07 16:18:59;;;;;;;;;;;;;;;;;;5054141;28;19916;-45
2022/05/07 16:21:24;;;;;;;;;;;;;;;;;;5053125;28;19913;-44
2022/05/07 16:26:34;;;;;;;;;;;;;;;;;;5053671;28;19935;-44
2022/05/07 16:28:59;;;;;;;;;;;;;;;;;;5053882;28;19909;-44
2022/05/07 16:31:25;;;;;;;;;;;;;;;;;;5053660;28;19964;-44
2022/05/07 16:33:50;;;;;;;;;;;;;;;;;;5057268;28;19955;-44
2022/05/07 16:36:15;;;;;;;;;;;;;;;;;;5057576;28;20050;-44
2022/05/07 16:38:40;;;;;;;;;;;;;;;;;;5057688;28;19909;-44
2022/05/07 16:41:06;;;;;;;;;;;;;;;;;;5057423;28;19909;-44
2022/05/07 16:43:31;;;;;;;;;;;;;;;;;;5057446;28;20364;-46
2022/05/07 16:45:56;;;;;;;;;;;;;;;;;;5057355;28;20372;-46
2022/05/07 16:48:21;;;;;;;;;;;;;;;;;;5057326;28;19908;-44
2022/05/07 16:50:46;;;;;;;;;;;;;;;;;;5057120;28;19912;-44
2022/05/07 16:53:11;;;;;;;;;;;;;;;;;;5057251;28;19962;-44
2022/05/07 16:55:36;;;;;;;;;;;;;;;;;;5057233;28;20014;-45
2022/05/07 16:58:01;;;;;;;;;;;;;;;;;;5056984;28;19927;-45
2022/05/07 17:00:26;;;;;;;;;;;;;;;;;;5057132;28;19923;-44
2022/05/07 17:02:52;;;;;;;;;;;;;;;;;;5057056;28;19962;-47
2022/05/07 17:05:17;;;;;;;;;;;;;;;;;;5056978;28;19913;-44
2022/05/07 17:07:42;;;;;;;;;;;;;;;;;;5057071;28;20376;-44
2022/05/07 17:10:07;;;;;;;;;;;;;;;;;;5056852;28;19917;-44
2022/05/07 17:12:32;;;;;;;;;;;;;;;;;;5056816;28;20438;-44
2022/05/07 17:14:58;;;;;;;;;;;;;;;;;;5056974;28;19938;-44
2022/05/07 17:17:23;;;;;;;;;;;;;;;;;;5056915;28;19917;-44
2022/05/07 17:19:48;;;;;;;;;;;;;;;;;;5056354;28;19927;-44
2022/05/07 17:22:14;;;;;;;;;;;;;;;;;;5056926;28;19908;-44
2022/05/07 17:24:39;;;;;;;;;;;;;;;;;;5056937;28;19912;-46